createdAt,value
2018-01-20T00:00:29.080Z,0.10
2018-01-20T00:02:57.263Z,0.00
2018-01-20T00:05:25.527Z,0.00
2018-01-20T00:07:53.598Z,-0.10
2018-01-20T00:13:27.660Z,-0.10
2018-01-20T00:15:56.705Z,-0.20
2018-01-20T00:18:24.825Z,-0.20
2018-01-20T00:20:52.774Z,-0.20
2018-01-20T00:23:20.908Z,-0.20
2018-01-20T00:25:54.477Z,-0.20
2018-01-20T00:28:23.201Z,-0.20
2018-01-20T00:30:51.396Z,-0.30
2018-01-20T00:33:19.397Z,-0.20
2018-01-20T00:35:47.647Z,-0.20
2018-01-20T00:38:15.822Z,-0.20
2018-01-20T00:40:43.689Z,-0.20
2018-01-20T00:43:11.665Z,-0.20
2018-01-20T00:45:39.649Z,-0.20
2018-01-20T00:48:07.606Z,-0.20
2018-01-20T00:50:35.745Z,-0.20
2018-01-20T00:53:03.638Z,-0.20
2018-01-20T00:55:31.551Z,-0.20
2018-01-20T00:58:00.812Z,-0.10
2018-01-20T01:00:28.772Z,-0.10
2018-01-20T01:02:56.750Z,-0.10
2018-01-20T01:05:24.816Z,-0.10
2018-01-20T01:07:52.752Z,-0.10
2018-01-20T01:10:20.814Z,-0.20
2018-01-20T01:12:49.355Z,-0.20
2018-01-20T01:15:18.844Z,-0.30
2018-01-20T01:17:46.691Z,-0.30
2018-01-20T01:20:14.610Z,-0.20
2018-01-20T01:22:43.202Z,-0.20
2018-01-20T01:25:11.761Z,-0.30
2018-01-20T01:27:39.659Z,-0.30
2018-01-20T01:30:08.249Z,-0.30
2018-01-20T01:32:36.065Z,-0.40
2018-01-20T01:35:04.017Z,-0.40
2018-01-20T01:37:31.814Z,-0.40
2018-01-20T01:39:59.668Z,-0.40
2018-01-20T01:42:27.573Z,-0.40
2018-01-20T01:44:56.134Z,-0.50
2018-01-20T01:47:24.053Z,-0.50
2018-01-20T01:49:51.997Z,-0.40
2018-01-20T01:52:20.540Z,-0.50
2018-01-20T01:54:48.364Z,-0.50
2018-01-20T01:57:16.333Z,-0.50
2018-01-20T01:59:44.213Z,-0.50
2018-01-20T02:02:12.092Z,-0.50
2018-01-20T02:04:39.982Z,-0.50
2018-01-20T02:07:07.821Z,-0.60
2018-01-20T02:09:35.714Z,-0.60
2018-01-20T02:12:03.727Z,-0.60
2018-01-20T02:14:31.946Z,-0.60
2018-01-20T02:17:00.031Z,-0.70
2018-01-20T02:19:28.400Z,-0.70
2018-01-20T02:21:56.369Z,-0.70
2018-01-20T02:26:55.275Z,-0.70
2018-01-20T02:29:23.316Z,-0.70
2018-01-20T02:31:51.266Z,-0.60
2018-01-20T02:34:19.240Z,-0.70
2018-01-20T02:36:47.155Z,-0.70
2018-01-20T02:39:15.029Z,-0.70
2018-01-20T02:41:43.091Z,-0.70
2018-01-20T02:44:10.915Z,-0.80
2018-01-20T02:46:38.841Z,-0.80
2018-01-20T02:49:06.796Z,-0.80
2018-01-20T02:51:34.763Z,-0.80
2018-01-20T02:54:02.630Z,-0.90
2018-01-20T02:56:30.713Z,-0.80
2018-01-20T02:58:58.828Z,-0.90
2018-01-20T03:01:26.865Z,-0.90
2018-01-20T03:03:55.033Z,-0.90
2018-01-20T03:06:22.887Z,-0.90
2018-01-20T03:08:50.839Z,-0.90
2018-01-20T03:11:19.029Z,-1.00
2018-01-20T03:13:47.000Z,-0.90
2018-01-20T03:16:15.734Z,-1.00
2018-01-20T03:18:44.608Z,-1.00
2018-01-20T03:21:13.262Z,-1.10
2018-01-20T03:23:41.210Z,-1.10
2018-01-20T03:26:09.202Z,-1.10
2018-01-20T03:28:37.186Z,-1.10
2018-01-20T03:31:05.928Z,-1.20
2018-01-20T03:33:33.824Z,-1.20
2018-01-20T03:36:01.660Z,-1.20
2018-01-20T03:38:29.635Z,-1.20
2018-01-20T03:40:57.554Z,-1.20
2018-01-20T03:43:25.861Z,-1.20
2018-01-20T03:45:53.845Z,-1.10
2018-01-20T03:48:21.846Z,-1.10
2018-01-20T03:50:49.819Z,-1.10
2018-01-20T03:53:17.764Z,-1.10
2018-01-20T03:55:45.832Z,-1.20
2018-01-20T03:58:13.826Z,-1.20
2018-01-20T04:00:41.761Z,-1.20
2018-01-20T04:03:09.838Z,-1.20
2018-01-20T04:05:37.912Z,-1.30
2018-01-20T04:08:05.760Z,-1.40
2018-01-20T04:10:33.745Z,-1.40
2018-01-20T04:13:01.748Z,-1.50
2018-01-20T04:15:29.713Z,-1.50
2018-01-20T04:17:57.684Z,-1.60
2018-01-20T04:20:25.755Z,-1.60
2018-01-20T04:22:53.688Z,-1.60
2018-01-20T04:25:21.687Z,-1.60
2018-01-20T04:27:49.766Z,-1.70
2018-01-20T04:30:17.700Z,-1.70
2018-01-20T04:32:45.554Z,-1.70
2018-01-20T04:35:13.527Z,-1.80
2018-01-20T04:37:41.605Z,-1.80
2018-01-20T04:40:09.579Z,-1.80
2018-01-20T04:42:37.548Z,-1.90
2018-01-20T04:45:05.548Z,-2.00
2018-01-20T04:47:35.514Z,-2.10
2018-01-20T04:50:03.319Z,-2.20
2018-01-20T04:52:31.094Z,-2.30
2018-01-20T04:54:59.783Z,-2.30
2018-01-20T04:57:27.628Z,-2.30
2018-01-20T04:59:55.457Z,-2.30
2018-01-20T05:02:24.188Z,-2.40
2018-01-20T05:04:52.274Z,-2.40
2018-01-20T05:07:20.242Z,-2.30
2018-01-20T05:09:48.519Z,-2.40
2018-01-20T05:12:16.487Z,-2.50
2018-01-20T05:14:44.627Z,-2.40
2018-01-20T05:17:12.593Z,-2.50
2018-01-20T05:19:40.607Z,-2.50
2018-01-20T05:22:08.467Z,-2.50
2018-01-20T05:24:36.744Z,-2.50
2018-01-20T05:27:04.712Z,-2.50
2018-01-20T05:29:32.690Z,-2.40
2018-01-20T05:32:00.720Z,-2.40
2018-01-20T05:34:28.757Z,-2.40
2018-01-20T05:36:57.408Z,-2.30
2018-01-20T05:39:25.557Z,-2.30
2018-01-20T05:41:53.640Z,-2.30
2018-01-20T05:44:21.626Z,-2.30
2018-01-20T05:46:49.800Z,-2.30
2018-01-20T05:49:18.075Z,-2.30
2018-01-20T05:51:46.327Z,-2.30
2018-01-20T05:54:14.305Z,-2.30
2018-01-20T05:56:42.187Z,-2.20
2018-01-20T05:59:10.400Z,-2.20
2018-01-20T06:01:39.428Z,-2.20
2018-01-20T06:04:07.323Z,-2.20
2018-01-20T06:06:35.292Z,-2.20
2018-01-20T06:09:03.319Z,-2.10
2018-01-20T06:11:31.230Z,-2.10
2018-01-20T06:13:59.304Z,-2.10
2018-01-20T06:16:27.393Z,-2.20
2018-01-20T06:18:55.344Z,-2.20
2018-01-20T06:21:23.484Z,-2.20
2018-01-20T06:23:51.794Z,-2.20
2018-01-20T06:26:19.845Z,-2.20
2018-01-20T06:28:47.836Z,-2.20
2018-01-20T06:31:16.013Z,-2.20
2018-01-20T06:33:44.565Z,-2.20
2018-01-20T06:36:12.405Z,-2.30
2018-01-20T06:38:41.511Z,-2.30
2018-01-20T06:41:09.424Z,-2.30
2018-01-20T06:43:37.567Z,-2.30
2018-01-20T06:46:05.516Z,-2.20
2018-01-20T06:48:33.319Z,-2.20
2018-01-20T06:51:01.128Z,-2.10
2018-01-20T06:53:29.832Z,-2.10
2018-01-20T06:55:57.686Z,-2.10
2018-01-20T06:58:26.405Z,-2.10
2018-01-20T07:00:54.653Z,-2.10
2018-01-20T07:03:23.713Z,-2.00
2018-01-20T07:05:51.749Z,-2.00
2018-01-20T07:08:19.952Z,-1.90
2018-01-20T07:10:48.090Z,-1.90
2018-01-20T07:13:16.095Z,-1.80
2018-01-20T07:15:45.503Z,-1.80
2018-01-20T07:18:13.468Z,-1.80
2018-01-20T07:20:41.416Z,-1.80
2018-01-20T07:23:09.688Z,-1.80
2018-01-20T07:25:37.786Z,-1.80
2018-01-20T07:28:05.717Z,-1.80
2018-01-20T07:30:33.713Z,-1.80
2018-01-20T07:33:01.575Z,-1.70
2018-01-20T07:35:29.411Z,-1.70
2018-01-20T07:37:57.415Z,-1.60
2018-01-20T07:40:25.680Z,-1.70
2018-01-20T07:42:53.743Z,-1.60
2018-01-20T07:45:21.762Z,-1.60
2018-01-20T07:47:49.715Z,-1.50
2018-01-20T07:50:17.777Z,-1.50
2018-01-20T07:52:45.680Z,-1.50
2018-01-20T07:55:14.647Z,-1.40
2018-01-20T07:57:43.375Z,-1.30
2018-01-20T08:00:12.152Z,-1.30
2018-01-20T08:02:40.695Z,-1.30
2018-01-20T08:05:11.892Z,-1.30
2018-01-20T08:07:40.335Z,-1.30
2018-01-20T08:10:08.667Z,-1.30
2018-01-20T08:12:39.805Z,-1.20
2018-01-20T08:15:10.563Z,-1.20
2018-01-20T08:17:41.503Z,-1.10
2018-01-20T08:20:11.915Z,-1.10
2018-01-20T08:22:41.271Z,-0.90
2018-01-20T08:25:13.061Z,-0.90
2018-01-20T08:27:41.256Z,-0.80
2018-01-20T08:30:16.114Z,-0.80
2018-01-20T08:32:46.734Z,-0.80
2018-01-20T08:35:17.238Z,-0.80
2018-01-20T08:37:52.179Z,-0.80
2018-01-20T08:40:22.120Z,-0.80
2018-01-20T08:42:50.105Z,-0.80
2018-01-20T08:45:20.122Z,-0.70
2018-01-20T08:47:52.307Z,-0.60
2018-01-20T08:50:24.553Z,-0.60
2018-01-20T08:52:52.766Z,-0.60
2018-01-20T08:55:22.752Z,-0.60
2018-01-20T08:57:52.403Z,-0.60
2018-01-20T09:00:23.547Z,-0.50
2018-01-20T09:02:57.343Z,-0.50
2018-01-20T09:05:28.192Z,-0.50
2018-01-20T09:08:02.837Z,-0.50
2018-01-20T09:10:31.395Z,-0.40
2018-01-20T09:13:02.335Z,-0.30
2018-01-20T09:15:32.409Z,-0.20
2018-01-20T09:18:00.477Z,0.00
2018-01-20T09:20:29.011Z,0.10
2018-01-20T09:22:58.024Z,0.30
2018-01-20T09:25:26.252Z,0.30
2018-01-20T09:27:55.131Z,0.40
2018-01-20T09:30:23.283Z,0.50
2018-01-20T09:32:51.494Z,0.50
2018-01-20T09:35:19.588Z,0.60
2018-01-20T09:37:48.285Z,1.00
2018-01-20T09:40:16.208Z,0.90
2018-01-20T09:42:44.231Z,1.00
2018-01-20T09:45:12.179Z,1.00
2018-01-20T09:47:40.840Z,1.00
2018-01-20T09:50:08.759Z,1.00
2018-01-20T09:52:36.708Z,1.10
2018-01-20T09:55:05.949Z,1.10
2018-01-20T09:57:33.852Z,1.00
2018-01-20T10:00:01.764Z,1.20
2018-01-20T10:02:30.075Z,1.10
2018-01-20T10:04:58.258Z,1.10
2018-01-20T10:07:27.184Z,1.20
2018-01-20T10:09:55.269Z,1.30
2018-01-20T10:12:24.529Z,1.40
2018-01-20T10:14:52.620Z,1.40
2018-01-20T10:17:20.859Z,1.50
2018-01-20T10:19:50.629Z,1.60
2018-01-20T10:22:19.783Z,1.60
2018-01-20T10:24:47.752Z,1.70
2018-01-20T10:27:15.632Z,1.80
2018-01-20T10:29:43.473Z,2.00
2018-01-20T10:32:11.281Z,2.20
2018-01-20T10:34:39.900Z,2.40
2018-01-20T10:37:07.798Z,2.40
2018-01-20T10:39:35.672Z,2.40
2018-01-20T10:42:03.630Z,2.40
2018-01-20T10:44:31.565Z,2.60
2018-01-20T10:46:59.472Z,2.80
2018-01-20T10:49:27.370Z,3.00
2018-01-20T10:51:56.085Z,2.80
2018-01-20T10:54:23.952Z,2.80
2018-01-20T10:56:51.836Z,2.90
2018-01-20T10:59:19.928Z,3.00
2018-01-20T11:01:47.827Z,3.10
2018-01-20T11:04:16.545Z,3.50
2018-01-20T11:06:44.600Z,3.50
2018-01-20T11:09:12.598Z,3.70
2018-01-20T11:11:40.517Z,3.90
2018-01-20T11:14:09.132Z,4.10
2018-01-20T11:16:37.047Z,4.10
2018-01-20T11:19:04.970Z,4.20
2018-01-20T11:21:32.829Z,4.30
2018-01-20T11:24:00.934Z,4.30
2018-01-20T11:26:28.746Z,4.20
2018-01-20T11:28:56.641Z,4.20
2018-01-20T11:31:24.478Z,4.30
2018-01-20T11:33:53.508Z,4.80
2018-01-20T11:36:21.569Z,4.80
2018-01-20T11:38:50.788Z,5.20
2018-01-20T11:41:19.161Z,5.10
2018-01-20T11:43:47.740Z,5.20
2018-01-20T11:46:15.593Z,5.20
2018-01-20T11:48:43.413Z,5.40
2018-01-20T11:51:11.355Z,5.60
2018-01-20T11:53:39.447Z,5.70
2018-01-20T11:56:08.574Z,5.90
2018-01-20T11:58:36.474Z,5.80
2018-01-20T12:01:04.373Z,5.80
2018-01-20T12:03:32.359Z,5.90
2018-01-20T12:06:00.325Z,6.20
2018-01-20T12:08:28.147Z,6.40
2018-01-20T12:10:55.939Z,6.50
2018-01-20T12:13:23.848Z,6.60
2018-01-20T12:15:52.476Z,6.60
2018-01-20T12:18:20.317Z,6.60
2018-01-20T12:20:48.968Z,6.80
2018-01-20T12:23:16.917Z,6.80
2018-01-20T12:25:44.829Z,6.80
2018-01-20T12:28:13.656Z,6.90
2018-01-20T12:30:41.550Z,6.90
2018-01-20T12:33:09.436Z,6.90
2018-01-20T12:35:37.424Z,6.90
2018-01-20T12:38:06.059Z,7.10
2018-01-20T12:40:33.933Z,7.10
2018-01-20T12:43:02.033Z,7.30
2018-01-20T12:45:29.953Z,7.40
2018-01-20T12:47:57.904Z,7.60
2018-01-20T12:50:25.843Z,7.60
2018-01-20T12:52:53.700Z,7.70
2018-01-20T12:55:21.557Z,7.80
2018-01-20T12:57:49.461Z,7.90
2018-01-20T13:00:18.091Z,8.00
2018-01-20T13:02:45.901Z,8.00
2018-01-20T13:05:14.571Z,8.10
2018-01-20T13:07:42.422Z,8.10
2018-01-20T13:10:10.219Z,8.10
2018-01-20T13:12:38.070Z,8.20
2018-01-20T13:15:06.004Z,8.20
2018-01-20T13:17:33.787Z,8.30
2018-01-20T13:20:01.766Z,8.20
2018-01-20T13:22:29.653Z,8.20
2018-01-20T13:24:58.253Z,8.20
2018-01-20T13:27:26.904Z,8.20
2018-01-20T13:29:54.812Z,8.10
2018-01-20T13:32:22.674Z,8.00
2018-01-20T13:34:51.439Z,7.90
2018-01-20T13:37:19.292Z,7.80
2018-01-20T13:39:47.159Z,7.70
2018-01-20T13:42:15.144Z,7.70
2018-01-20T13:44:43.975Z,7.50
2018-01-20T13:47:11.978Z,7.50
2018-01-20T13:49:39.947Z,7.40
2018-01-20T13:52:07.721Z,7.40
2018-01-20T13:54:35.629Z,7.40
2018-01-20T13:57:04.244Z,7.40
2018-01-20T13:59:32.091Z,7.30
2018-01-20T14:01:59.998Z,7.20
2018-01-20T14:04:27.860Z,7.10
2018-01-20T14:06:55.784Z,7.00
2018-01-20T14:09:23.664Z,7.00
2018-01-20T14:11:51.627Z,6.80
2018-01-20T14:14:19.553Z,6.80
2018-01-20T14:16:47.351Z,6.70
2018-01-20T14:19:16.033Z,6.60
2018-01-20T14:21:44.656Z,6.60
2018-01-20T14:24:12.472Z,6.50
2018-01-20T14:26:41.152Z,6.40
2018-01-20T14:29:09.003Z,6.40
2018-01-20T14:31:36.846Z,6.30
2018-01-20T14:34:04.744Z,6.20
2018-01-20T14:36:32.555Z,6.10
2018-01-20T14:39:00.410Z,6.00
2018-01-20T14:41:29.162Z,5.70
2018-01-20T14:43:57.033Z,5.70
2018-01-20T14:46:24.960Z,5.50
2018-01-20T14:48:52.878Z,5.40
2018-01-20T14:51:20.732Z,5.30
2018-01-20T14:53:48.640Z,5.20
2018-01-20T14:56:16.504Z,5.00
2018-01-20T14:58:44.400Z,4.90
2018-01-20T15:01:12.189Z,4.70
2018-01-20T15:03:40.097Z,4.60
2018-01-20T15:06:08.760Z,4.40
2018-01-20T15:08:36.643Z,4.40
2018-01-20T15:11:05.358Z,4.20
2018-01-20T15:13:33.147Z,4.20
2018-01-20T15:16:01.028Z,4.00
2018-01-20T15:18:28.901Z,3.90
2018-01-20T15:20:57.197Z,3.80
2018-01-20T15:23:26.706Z,3.70
2018-01-20T15:25:54.681Z,3.60
2018-01-20T15:28:22.601Z,3.50
2018-01-20T15:30:50.411Z,3.50
2018-01-20T15:33:19.193Z,3.40
2018-01-20T15:35:47.967Z,3.30
2018-01-20T15:38:16.020Z,3.30
2018-01-20T15:40:43.901Z,3.10
2018-01-20T15:43:11.831Z,3.00
2018-01-20T15:45:39.728Z,2.90
2018-01-20T15:48:07.609Z,2.80
2018-01-20T15:50:35.468Z,2.70
2018-01-20T15:53:03.388Z,2.60
2018-01-20T15:55:31.272Z,2.50
2018-01-20T15:57:59.140Z,2.40
2018-01-20T16:00:26.995Z,2.30
2018-01-20T16:02:54.954Z,2.20
2018-01-20T16:05:22.755Z,2.10
2018-01-20T16:07:50.755Z,2.10
2018-01-20T16:10:18.861Z,2.00
2018-01-20T16:12:46.717Z,2.00
2018-01-20T16:15:15.370Z,1.70
2018-01-20T16:17:44.098Z,1.70
2018-01-20T16:20:11.936Z,1.60
2018-01-20T16:22:39.807Z,1.60
2018-01-20T16:25:07.669Z,1.50
2018-01-20T16:27:35.562Z,1.50
2018-01-20T16:30:04.136Z,1.40
2018-01-20T16:32:32.800Z,1.30
2018-01-20T16:35:00.667Z,1.30
2018-01-20T16:37:28.619Z,1.30
2018-01-20T16:39:56.593Z,1.20
2018-01-20T16:42:24.460Z,1.10
2018-01-20T16:44:52.396Z,1.00
2018-01-20T16:47:20.331Z,0.90
2018-01-20T16:49:48.988Z,0.70
2018-01-20T16:52:16.799Z,0.70
2018-01-20T16:54:44.756Z,0.60
2018-01-20T16:57:12.789Z,0.60
2018-01-20T16:59:40.870Z,0.50
2018-01-20T17:02:08.756Z,0.50
2018-01-20T17:04:37.357Z,0.30
2018-01-20T17:07:05.987Z,0.30
2018-01-20T17:09:33.973Z,0.30
2018-01-20T17:12:01.895Z,0.20
2018-01-20T17:14:29.882Z,0.20
2018-01-20T17:16:57.880Z,0.20
2018-01-20T17:19:25.795Z,0.20
2018-01-20T17:21:54.581Z,0.40
2018-01-20T17:24:22.608Z,0.40
2018-01-20T17:26:50.617Z,0.50
2018-01-20T17:29:18.750Z,0.50
2018-01-20T17:31:46.772Z,0.60
2018-01-20T17:34:14.695Z,0.70
2018-01-20T17:36:42.660Z,0.60
2018-01-20T17:39:10.720Z,0.50
2018-01-20T17:41:38.976Z,0.50
2018-01-20T17:44:06.846Z,0.50
2018-01-20T17:46:35.100Z,0.50
2018-01-20T17:49:03.171Z,0.50
2018-01-20T17:51:31.185Z,0.40
2018-01-20T17:53:59.422Z,0.40
2018-01-20T17:56:27.538Z,0.30
2018-01-20T17:58:55.939Z,0.30
2018-01-20T18:01:24.773Z,0.20
2018-01-20T18:03:52.646Z,0.20
2018-01-20T18:06:20.624Z,0.30
2018-01-20T18:08:50.332Z,0.30
2018-01-20T18:11:20.225Z,0.40
2018-01-20T18:13:50.190Z,0.40
2018-01-20T18:16:18.200Z,0.50
2018-01-20T18:18:47.002Z,0.50
2018-01-20T18:21:16.918Z,0.60
2018-01-20T18:23:46.777Z,0.60
2018-01-20T18:26:16.093Z,0.50
2018-01-20T18:28:45.809Z,0.60
2018-01-20T18:31:15.677Z,0.60
2018-01-20T18:33:44.334Z,0.50
2018-01-20T18:36:13.622Z,0.50
2018-01-20T18:38:43.306Z,0.50
2018-01-20T18:41:12.184Z,0.60
2018-01-20T18:43:40.255Z,0.60
2018-01-20T18:46:10.751Z,0.50
2018-01-20T18:48:41.794Z,0.40
2018-01-20T18:51:13.730Z,0.40
2018-01-20T18:53:41.796Z,0.30
2018-01-20T18:56:15.596Z,0.20
2018-01-20T19:19:47.469Z,0.20
2018-01-20T19:22:15.299Z,0.20
2018-01-20T19:24:43.198Z,0.10
2018-01-20T19:27:11.347Z,0.00
2018-01-20T19:29:39.373Z,-0.10
2018-01-20T19:32:07.272Z,-0.10
2018-01-20T19:34:38.325Z,-0.10
2018-01-20T19:37:07.748Z,-0.20
2018-01-20T19:39:36.130Z,-0.20
2018-01-20T19:42:04.001Z,-0.20
2018-01-20T19:44:32.948Z,-0.20
2018-01-20T19:47:00.825Z,-0.20
2018-01-20T19:49:28.842Z,-0.30
2018-01-20T19:51:57.036Z,-0.30
2018-01-20T19:54:24.950Z,-0.30
2018-01-20T19:56:52.841Z,-0.30
2018-01-20T19:59:21.694Z,-0.40
2018-01-20T20:01:49.653Z,-0.40
2018-01-20T20:04:18.820Z,-0.40
2018-01-20T20:06:47.220Z,-0.40
2018-01-20T20:09:15.809Z,-0.30
2018-01-20T20:11:43.853Z,-0.40
2018-01-20T20:14:11.809Z,-0.30
2018-01-20T20:16:40.480Z,-0.20
2018-01-20T20:19:08.531Z,0.00
2018-01-20T20:21:40.802Z,0.00
2018-01-20T20:24:10.389Z,0.20
2018-01-20T20:26:39.953Z,0.20
2018-01-20T20:29:11.193Z,0.20
2018-01-20T20:31:41.683Z,0.20
2018-01-20T20:34:09.653Z,0.20
2018-01-20T20:36:37.678Z,0.10
2018-01-20T20:39:05.876Z,0.00
2018-01-20T20:41:35.085Z,-0.20
2018-01-20T20:44:06.040Z,-0.20
2018-01-20T20:46:33.852Z,-0.20
2018-01-20T20:49:01.724Z,-0.30
2018-01-20T20:51:30.716Z,-0.40
2018-01-20T20:53:58.806Z,-0.50
2018-01-20T20:56:27.558Z,-0.50
2018-01-20T20:58:56.052Z,-0.60
2018-01-20T21:01:24.368Z,-0.60
2018-01-20T21:03:53.106Z,-0.70
2018-01-20T21:06:21.076Z,-0.70
2018-01-20T21:08:49.460Z,-0.80
2018-01-20T21:11:17.840Z,-0.70
2018-01-20T21:13:45.706Z,-0.80
2018-01-20T21:16:13.669Z,-0.80
2018-01-20T21:18:41.841Z,-0.80
2018-01-20T21:21:09.738Z,-0.80
2018-01-20T21:23:37.688Z,-0.80
2018-01-20T21:26:05.555Z,-0.70
2018-01-20T21:28:33.421Z,-0.70
2018-01-20T21:31:01.390Z,-0.70
2018-01-20T21:33:29.361Z,-0.70
2018-01-20T21:35:57.353Z,-0.70
2018-01-20T21:38:26.117Z,-0.60
2018-01-20T21:40:53.985Z,-0.60
2018-01-20T21:43:21.851Z,-0.60
2018-01-20T21:45:49.812Z,-0.50
2018-01-20T21:48:17.645Z,-0.50
2018-01-20T21:50:45.574Z,-0.50
2018-01-20T21:53:13.522Z,-0.50
2018-01-20T21:55:41.494Z,-0.50
2018-01-20T21:58:09.667Z,-0.60
2018-01-20T22:00:37.734Z,-0.60
2018-01-20T22:03:05.606Z,-0.60
2018-01-20T22:05:33.471Z,-0.70
2018-01-20T22:08:01.526Z,-0.70
2018-01-20T22:10:29.574Z,-0.80
2018-01-20T22:12:57.593Z,-0.80
2018-01-20T22:15:25.555Z,-0.90
2018-01-20T22:17:53.607Z,-0.90
2018-01-20T22:20:21.507Z,-0.90
2018-01-20T22:22:49.574Z,-1.00
2018-01-20T22:25:17.552Z,-1.00
2018-01-20T22:27:45.419Z,-0.90
2018-01-20T22:30:13.371Z,-0.90
2018-01-20T22:32:41.239Z,-0.90
2018-01-20T22:35:09.083Z,-1.00
2018-01-20T22:37:37.782Z,-1.00
2018-01-20T22:40:05.524Z,-1.10
2018-01-20T22:42:33.403Z,-1.10
2018-01-20T22:45:01.307Z,-1.10
2018-01-20T22:47:29.257Z,-1.10
2018-01-20T22:49:57.174Z,-1.00
2018-01-20T22:52:25.114Z,-1.00
2018-01-20T22:54:54.096Z,-0.90
2018-01-20T22:57:22.118Z,-0.90
2018-01-20T22:59:50.240Z,-0.80
2018-01-20T23:02:18.442Z,-0.70
2018-01-20T23:04:47.084Z,-0.60
2018-01-20T23:07:14.971Z,-0.70
2018-01-20T23:09:43.124Z,-0.60
2018-01-20T23:12:10.976Z,-0.60
2018-01-20T23:14:38.929Z,-0.60
2018-01-20T23:17:06.838Z,-0.60
2018-01-20T23:19:34.658Z,-0.50
2018-01-20T23:22:02.521Z,-0.50
2018-01-20T23:24:30.402Z,-0.50
2018-01-20T23:26:58.366Z,-0.50
2018-01-20T23:29:26.903Z,-0.50
2018-01-20T23:31:54.718Z,-0.50
2018-01-20T23:34:22.716Z,-0.50
2018-01-20T23:36:50.688Z,-0.60
2018-01-20T23:39:18.730Z,-0.60
2018-01-20T23:41:46.692Z,-0.70
2018-01-20T23:44:14.594Z,-0.60
2018-01-20T23:46:42.487Z,-0.60
2018-01-20T23:49:10.334Z,-0.50
2018-01-20T23:51:38.311Z,-0.50
2018-01-20T23:54:06.162Z,-0.50
2018-01-20T23:56:34.130Z,-0.50
2018-01-20T23:59:02.204Z,-0.50
